首页
METAR-TAF:

METAR-TAF

机场 :

Barkley Regional Airport

Paducah, 肯塔基州, 美国

纬度: 37-03-23N, 经度: 088-46-26W, 海拔: 125米

当前天气观测

该预报发布于21分钟前的10:53 UTC
静风
温度 -7°C
湿度 86%
气压 1030 hPa
能見度: 16.1公里
天空无云

METAR: KPAH 111053Z AUTO 00000KT 10SM CLR M07/M09 A3043 RMK AO2 SLP309 T10671089

时间: 05:14 (11:14 UTC)

预报

该预报发布于5小时和54分钟前的05:20 UTC
预报有效从11日的 06点(UTC)到 12日的 06点(UTC)
风速2节,风向多变
能見度: 10公里
天空无云
从 11日的 1600点(UTC)
风速6节,风向南转西南
能見度: 10公里
天空无云
从 11日的 2200点(UTC)
风速3节,风向多变
能見度: 10公里
天空无云

TAF: KPAH 110520Z 1106/1206 VRB02KT P6SM SKC FM111600 21006KT P6SM SKC FM112200 VRB03KT P6SM SKC

超过4000个机场的气象观测和天气预报(METAR&TAF报告)。

可查询的气象台以黄色和红色小点在地图上表示。

将鼠标移到小点上方,可查看气象台名称。

然后点击查看天气观测和预报。

如需切换地图:点击带黑十字的绿色按钮放大地图;点击带横线的绿色按钮缩小地图;或者点击绿色箭头查看邻近地区的地图。


METAR-TAF: